Time;durP1;ratioP1;P1;durP2;ratioP2;P2;SDS_P1;SDS_P2;PMS_P1;PMS_P2;Temp;Humidity;BMP_temperature;BMP_pressure;BME280_temperature;BME280_humidity;BME280_pressure;Samples;Min_cycle;Max_cycle;Signal;HPM_P1;HPM_P2
2022/03/13 00:02:17;;;;;;;3.90;3.05;;;;;;;9.32;66.06;101503.78;5058586;28;20090;-76
2022/03/13 00:04:49;;;;;;;4.32;3.55;;;;;;;9.34;65.38;101509.81;5076910;28;20064;-76
2022/03/13 00:07:19;;;;;;;3.17;2.85;;;;;;;9.35;65.78;101507.03;5075259;28;20025;-76
2022/03/13 00:09:54;;;;;;;5.00;2.95;;;;;;;9.34;65.85;101507.16;5076397;28;20036;-76
2022/03/13 00:12:27;;;;;;;3.75;2.95;;;;;;;9.31;66.11;101504.72;5076814;28;20036;-76
2022/03/13 00:14:55;;;;;;;3.33;2.90;;;;;;;9.30;66.35;101501.25;5076353;28;20412;-76
2022/03/13 00:17:29;;;;;;;4.63;2.88;;;;;;;9.31;66.18;101491.44;5075971;28;20033;-75
2022/03/13 00:20:00;;;;;;;4.13;2.75;;;;;;;9.26;67.30;101496.28;5074895;28;20048;-76
2022/03/13 00:22:27;;;;;;;4.18;3.00;;;;;;;9.21;67.33;101485.13;5076195;28;20033;-76
2022/03/13 00:24:53;;;;;;;3.13;2.83;;;;;;;9.18;67.13;101483.53;5076016;28;20039;-76
2022/03/13 00:27:18;;;;;;;3.40;3.00;;;;;;;9.16;67.16;101481.00;5075822;28;20469;-76
2022/03/13 00:29:44;;;;;;;4.50;3.28;;;;;;;9.15;67.03;101479.31;5076619;28;20037;-76
2022/03/13 00:32:09;;;;;;;4.43;3.25;;;;;;;9.12;67.33;101484.88;5076275;28;20044;-76
2022/03/13 00:34:35;;;;;;;4.10;2.95;;;;;;;9.10;67.45;101477.97;5075727;28;20073;-76
2022/03/13 00:37:00;;;;;;;3.55;3.25;;;;;;;9.10;67.42;101478.81;5093551;28;20056;-76
2022/03/13 00:39:26;;;;;;;3.35;2.80;;;;;;;9.08;67.85;101478.09;5096091;28;20146;-76
2022/03/13 00:41:52;;;;;;;3.85;3.17;;;;;;;9.05;67.91;101480.13;5095992;28;20032;-76
2022/03/13 00:44:17;;;;;;;4.10;2.90;;;;;;;9.03;67.91;101482.03;5095927;28;20036;-76
2022/03/13 00:46:43;;;;;;;6.03;3.25;;;;;;;8.99;68.76;101478.78;5095669;28;20419;-76
2022/03/13 00:49:08;;;;;;;3.92;3.13;;;;;;;8.98;68.93;101487.69;5095822;28;20046;-76
2022/03/13 00:51:34;;;;;;;4.03;3.45;;;;;;;8.98;68.34;101483.22;5077781;28;20032;-77
2022/03/13 00:53:59;;;;;;;4.95;3.10;;;;;;;8.98;68.50;101479.72;5095939;28;20077;-76
2022/03/13 00:56:25;;;;;;;3.72;3.00;;;;;;;8.99;68.28;101476.13;5096048;28;20071;-77
2022/03/13 00:58:50;;;;;;;3.92;3.17;;;;;;;8.98;68.15;101474.41;5096272;28;20082;-76
2022/03/13 01:01:16;;;;;;;3.95;2.90;;;;;;;8.99;68.07;101461.03;5095453;28;20028;-77
2022/03/13 01:03:41;;;;;;;3.88;3.10;;;;;;;9.04;67.85;101465.16;5095522;28;20028;-77
2022/03/13 01:06:08;;;;;;;3.28;2.95;;;;;;;9.02;67.94;101459.97;5095743;28;20427;-77
2022/03/13 01:08:34;;;;;;;4.45;3.38;;;;;;;9.06;67.47;101464.09;5095263;28;20028;-77
2022/03/13 01:11:01;;;;;;;3.13;2.83;;;;;;;9.06;67.45;101464.09;5095291;28;20088;-76
2022/03/13 01:13:27;;;;;;;3.28;2.78;;;;;;;9.05;67.57;101465.03;5094998;28;20036;-76
2022/03/13 01:16:11;;;;;;;3.65;3.00;;;;;;;9.03;67.61;101458.97;5095450;28;20433;-77
2022/03/13 01:18:44;;;;;;;4.20;2.92;;;;;;;9.05;67.48;101450.94;5095536;28;20028;-77
2022/03/13 01:21:11;;;;;;;3.88;2.78;;;;;;;9.05;66.98;101451.78;5095296;28;20133;-77
2022/03/13 01:23:39;;;;;;;4.00;3.25;;;;;;;9.08;66.64;101448.03;5095586;28;20083;-77
2022/03/13 01:26:22;;;;;;;3.33;3.00;;;;;;;9.16;66.04;101449.13;5095381;28;20036;-77
2022/03/13 01:28:56;;;;;;;3.20;2.90;;;;;;;9.20;65.81;101444.47;5095598;28;20067;-76
2022/03/13 01:31:30;;;;;;;3.17;2.88;;;;;;;9.20;65.80;101449.78;5095141;28;20038;-77
2022/03/13 01:33:59;;;;;;;3.47;2.83;;;;;;;9.19;65.72;101448.06;5095002;28;20039;-77
2022/03/13 01:36:26;;;;;;;4.25;2.70;;;;;;;9.20;65.62;101444.47;5095023;28;20113;-76
2022/03/13 01:38:53;;;;;;;3.97;3.25;;;;;;;9.22;65.53;101447.00;5094854;28;20119;-76
2022/03/13 01:41:19;;;;;;;3.50;3.00;;;;;;;9.20;65.38;101430.34;5095085;28;20461;-77
2022/03/13 01:43:45;;;;;;;3.97;3.20;;;;;;;9.19;65.72;101426.84;5095462;28;20113;-76
2022/03/13 01:46:10;;;;;;;5.75;3.22;;;;;;;9.20;65.61;101438.31;5094948;28;20456;-77
2022/03/13 01:48:50;;;;;;;4.90;3.00;;;;;;;9.21;65.47;101432.91;5094668;28;20039;-76
2022/03/13 01:51:16;;;;;;;3.25;2.50;;;;;;;9.21;65.56;101432.03;5094550;28;20029;-77
2022/03/13 01:53:41;;;;;;;5.47;3.30;;;;;;;9.17;65.56;101421.63;5094803;28;20028;-77
2022/03/13 01:56:07;;;;;;;4.15;3.30;;;;;;;9.15;65.75;101420.91;5094313;28;20025;-77
2022/03/13 01:58:32;;;;;;;4.22;2.88;;;;;;;9.11;65.87;101408.00;5076254;28;20113;-77
2022/03/13 02:00:58;;;;;;;3.95;3.03;;;;;;;9.10;65.89;101423.06;5095240;28;20035;-77
2022/03/13 02:03:24;;;;;;;3.10;2.60;;;;;;;9.09;65.83;101412.56;5094784;28;20036;-77
2022/03/13 02:05:49;;;;;;;3.50;2.92;;;;;;;9.10;65.65;101411.59;5094031;28;20491;-76
2022/03/13 02:08:19;;;;;;;3.30;2.80;;;;;;;9.10;65.59;101408.94;5094213;28;20494;-77
2022/03/13 02:10:45;;;;;;;3.40;2.90;;;;;;;9.11;65.57;101400.03;5094285;28;20040;-77
2022/03/13 02:13:11;;;;;;;5.32;3.00;;;;;;;9.15;65.27;101407.66;5093880;28;20028;-76
2022/03/13 02:15:38;;;;;;;5.60;2.75;;;;;;;9.17;65.16;101407.53;5094206;28;20462;-77
2022/03/13 02:18:05;;;;;;;3.78;3.00;;;;;;;9.23;64.82;101400.91;5094508;28;20035;-77
2022/03/13 02:20:39;;;;;;;3.20;2.90;;;;;;;9.22;64.82;101405.34;5075611;28;20410;-76
2022/03/13 02:23:25;;;;;;;3.25;2.80;;;;;;;9.18;65.29;101401.22;5094213;28;20073;-76
2022/03/13 02:25:52;;;;;;;3.65;2.78;;;;;;;9.17;65.18;101395.09;5094283;28;20054;-76
2022/03/13 02:28:21;;;;;;;4.40;3.08;;;;;;;9.18;65.18;101395.94;5094176;28;20103;-77
2022/03/13 02:30:48;;;;;;;3.50;3.20;;;;;;;9.22;64.79;101392.09;5094612;28;20081;-77
2022/03/13 02:33:19;;;;;;;3.05;2.50;;;;;;;9.18;65.19;101393.28;5093884;28;20460;-77
2022/03/13 02:35:52;;;;;;;3.33;2.80;;;;;;;9.13;65.37;101384.81;5093696;28;20047;-77
2022/03/13 02:38:18;;;;;;;3.33;2.67;;;;;;;9.12;65.19;101389.28;5094114;28;20028;-77
2022/03/13 02:40:43;;;;;;;4.15;3.00;;;;;;;9.14;64.89;101384.72;5075681;28;20028;-77
2022/03/13 02:43:08;;;;;;;4.57;2.90;;;;;;;9.11;65.59;101374.31;5093808;28;20028;-77
2022/03/13 02:45:37;;;;;;;6.05;2.70;;;;;;;9.09;65.39;101370.94;5093784;28;20487;-77
2022/03/13 02:48:05;;;;;;;5.80;2.90;;;;;;;9.08;65.00;101373.72;5075533;28;20384;-78
2022/03/13 02:50:31;;;;;;;3.47;2.85;;;;;;;9.08;65.17;101366.59;5093802;28;20024;-78
2022/03/13 02:52:57;;;;;;;3.42;2.75;;;;;;;9.05;65.31;101366.00;5093456;28;20032;-77
2022/03/13 02:55:24;;;;;;;5.00;3.22;;;;;;;9.02;65.58;101364.41;5093831;28;20024;-77
2022/03/13 02:57:49;;;;;;;16.17;3.00;;;;;;;9.03;65.08;101360.75;5093655;28;20085;-77
2022/03/13 03:00:15;;;;;;;3.25;2.92;;;;;;;9.02;65.25;101356.44;5093620;28;20020;-77
2022/03/13 03:02:41;;;;;;;3.67;3.28;;;;;;;8.99;65.62;101356.69;5093880;28;20055;-77
2022/03/13 03:05:08;;;;;;;3.58;2.97;;;;;;;8.98;65.53;101358.47;5093404;28;20036;-76
2022/03/13 03:07:34;;;;;;;6.80;3.40;;;;;;;8.97;65.64;101361.22;5075270;28;20036;-77
2022/03/13 03:10:00;;;;;;;3.20;2.90;;;;;;;8.99;65.53;101361.97;5093175;28;20119;-76
2022/03/13 03:12:27;;;;;;;3.15;2.67;;;;;;;8.99;65.53;101361.97;5093380;28;20039;-77
2022/03/13 03:14:53;;;;;;;3.42;3.10;;;;;;;9.00;65.80;101363.66;5093240;28;20118;-77
2022/03/13 03:17:18;;;;;;;4.13;3.13;;;;;;;8.98;65.72;101358.47;5093302;28;20115;-77
2022/03/13 03:19:44;;;;;;;4.18;3.28;;;;;;;8.95;66.09;101361.34;5093432;28;20051;-77
2022/03/13 03:22:10;;;;;;;7.40;3.33;;;;;;;8.97;65.99;101359.44;5093425;28;20032;-77
2022/03/13 03:24:35;;;;;;;4.93;3.20;;;;;;;9.04;65.70;101357.16;5092793;28;20043;-77
2022/03/13 03:27:00;;;;;;;3.30;2.90;;;;;;;9.02;65.83;101358.22;5093651;28;20039;-76
2022/03/13 03:29:27;;;;;;;4.10;3.20;;;;;;;9.00;65.82;101355.69;5093359;28;20035;-77
2022/03/13 03:31:54;;;;;;;4.32;3.30;;;;;;;8.99;66.00;101364.63;5092846;28;20028;-77
2022/03/13 03:34:22;;;;;;;5.55;3.40;;;;;;;9.00;66.23;101363.66;5093615;28;20032;-77
2022/03/13 03:36:50;;;;;;;4.95;3.40;;;;;;;9.02;66.03;101364.41;5093283;28;20048;-77
2022/03/13 03:39:18;;;;;;;4.90;3.10;;;;;;;9.03;66.03;101365.25;5093040;28;20099;-77
2022/03/13 03:41:45;;;;;;;4.47;3.53;;;;;;;9.02;66.28;101366.19;5092636;28;20028;-77
2022/03/13 03:44:11;;;;;;;3.95;3.17;;;;;;;9.04;66.16;101374.91;5092906;28;20366;-76
2022/03/13 03:46:38;;;;;;;4.03;3.33;;;;;;;9.00;66.28;101377.78;5092576;28;20056;-75
2022/03/13 03:49:04;;;;;;;5.72;3.38;;;;;;;8.98;66.52;101369.06;5092872;28;20055;-75
2022/03/13 03:51:29;;;;;;;3.95;3.10;;;;;;;8.98;66.73;101374.38;5092793;28;20126;-76
2022/03/13 03:53:55;;;;;;;4.78;3.10;;;;;;;8.94;67.19;101377.38;5092741;28;20457;-76
2022/03/13 03:56:20;;;;;;;4.75;3.33;;;;;;;8.92;67.14;101374.84;5093301;28;20066;-75
2022/03/13 03:58:45;;;;;;;4.53;3.30;;;;;;;8.92;67.48;101377.50;5092446;28;20105;-76
2022/03/13 04:01:11;;;;;;;3.88;3.47;;;;;;;8.89;67.54;101377.75;5093244;28;20069;-76
2022/03/13 04:03:36;;;;;;;4.63;3.35;;;;;;;8.88;67.68;101372.56;5092676;28;20050;-75
2022/03/13 04:06:02;;;;;;;4.80;3.42;;;;;;;8.86;67.66;101379.78;5074197;28;20054;-75
2022/03/13 04:08:29;;;;;;;5.63;3.00;;;;;;;8.83;68.00;101364.94;5092448;28;20032;-75
2022/03/13 04:10:55;;;;;;;3.80;2.95;;;;;;;8.81;68.26;101380.13;5092612;28;20067;-75
2022/03/13 04:13:20;;;;;;;7.70;3.15;;;;;;;8.77;68.68;101379.50;5092602;28;20071;-75
2022/03/13 04:15:45;;;;;;;4.15;3.40;;;;;;;8.75;68.88;101377.94;5075135;28;20032;-75
2022/03/13 04:18:11;;;;;;;3.08;2.80;;;;;;;8.69;69.29;101373.94;5057965;28;20028;-75
2022/03/13 04:20:36;;;;;;;7.40;3.20;;;;;;;8.68;69.51;101371.41;5092546;28;20496;-77
2022/03/13 04:23:02;;;;;;;5.28;3.08;;;;;;;8.65;69.51;101372.47;5092677;28;20476;-76
2022/03/13 04:25:28;;;;;;;3.47;3.00;;;;;;;8.65;69.57;101372.47;5092746;28;20254;-76
2022/03/13 04:27:58;;;;;;;3.28;2.97;;;;;;;8.61;69.60;101376.28;5092425;28;20059;-76
2022/03/13 04:30:23;;;;;;;4.07;3.22;;;;;;;8.61;69.84;101373.63;5092914;28;20036;-76
2022/03/13 04:32:48;;;;;;;3.25;2.85;;;;;;;8.59;70.10;101372.91;5092991;28;20032;-77
2022/03/13 04:35:14;;;;;;;3.40;2.90;;;;;;;8.59;70.07;101362.31;5092474;28;20032;-76
2022/03/13 04:37:39;;;;;;;3.35;3.05;;;;;;;8.57;70.50;101362.41;5093024;28;20028;-77
2022/03/13 04:40:05;;;;;;;3.75;3.15;;;;;;;8.56;70.40;101373.16;5092615;28;20028;-77
2022/03/13 04:42:31;;;;;;;4.00;2.97;;;;;;;8.53;70.71;101363.59;5092572;28;20035;-77
2022/03/13 04:44:56;;;;;;;4.72;3.13;;;;;;;8.49;71.03;101364.78;5095878;28;20392;-76
2022/03/13 04:47:21;;;;;;;3.55;3.00;;;;;;;8.47;71.27;101364.06;5077821;28;20123;-77
2022/03/13 04:49:47;;;;;;;4.05;3.33;;;;;;;8.43;71.73;101358.09;5078194;28;20036;-77
2022/03/13 04:52:12;;;;;;;4.32;3.30;;;;;;;8.42;71.99;101356.41;5096443;28;20050;-76
2022/03/13 04:54:37;;;;;;;5.28;3.47;;;;;;;8.40;72.46;101360.97;5095463;28;20032;-77
2022/03/13 04:57:03;;;;;;;4.72;3.78;;;;;;;8.39;72.42;101364.59;5095745;28;20078;-76
2022/03/13 04:59:29;;;;;;;4.28;3.40;;;;;;;8.36;72.98;101361.28;5077244;28;20028;-76
2022/03/13 05:01:54;;;;;;;4.55;3.50;;;;;;;8.31;73.63;101364.28;5095694;28;20039;-76
2022/03/13 05:04:20;;;;;;;4.43;3.60;;;;;;;8.28;73.91;101365.38;5095697;28;20032;-76
2022/03/13 05:06:45;;;;;;;4.50;3.70;;;;;;;8.26;74.28;101369.94;5095912;28;20043;-76
2022/03/13 05:09:10;;;;;;;4.38;3.70;;;;;;;8.22;75.07;101371.09;5095336;28;20027;-76
2022/03/13 05:11:38;;;;;;;5.28;3.97;;;;;;;8.19;75.58;101367.84;5095343;28;20056;-76
2022/03/13 05:14:04;;;;;;;6.57;3.97;;;;;;;8.15;76.23;101355.75;5095421;28;20373;-76
2022/03/13 05:16:29;;;;;;;5.00;3.88;;;;;;;8.09;76.45;101351.72;5095675;28;20111;-75
2022/03/13 05:18:54;;;;;;;6.25;4.20;;;;;;;8.03;77.28;101361.00;5095411;28;20106;-76
2022/03/13 05:21:20;;;;;;;4.03;3.63;;;;;;;7.99;77.86;101362.16;5095844;28;20028;-76
2022/03/13 05:23:45;;;;;;;5.03;4.03;;;;;;;7.99;77.94;101354.22;5095735;28;20472;-76
2022/03/13 05:26:11;;;;;;;5.20;4.43;;;;;;;7.96;78.26;101357.09;5095429;28;20111;-76
2022/03/13 05:28:36;;;;;;;5.13;4.30;;;;;;;7.94;78.56;101359.84;5077149;28;20032;-78
2022/03/13 05:31:02;;;;;;;5.03;4.10;;;;;;;7.95;78.41;101360.69;5077420;28;20043;-77
2022/03/13 05:33:30;;;;;;;5.32;4.00;;;;;;;7.92;78.90;101359.09;5095075;28;20023;-76
2022/03/13 05:35:56;;;;;;;6.45;4.20;;;;;;;7.91;78.58;101360.06;5095093;28;20083;-77
2022/03/13 05:38:21;;;;;;;5.38;4.70;;;;;;;7.87;79.25;101347.97;5094996;28;20075;-77
2022/03/13 05:40:47;;;;;;;6.50;4.60;;;;;;;7.87;79.20;101349.78;5094921;28;20028;-77
2022/03/13 05:43:13;;;;;;;5.90;4.70;;;;;;;7.87;79.18;101349.78;5095191;28;20111;-78
2022/03/13 05:45:41;;;;;;;6.47;4.90;;;;;;;7.89;79.22;101350.53;5094869;28;20039;-78
2022/03/13 05:48:09;;;;;;;4.97;4.47;;;;;;;7.88;79.23;101351.47;5094805;28;20100;-78
2022/03/13 05:50:35;;;;;;;5.53;4.80;;;;;;;7.90;79.22;101354.88;5095330;28;20025;-77
2022/03/13 05:53:00;;;;;;;6.40;4.72;;;;;;;7.89;79.13;101351.34;5095317;28;20081;-78
2022/03/13 05:55:26;;;;;;;6.45;4.57;;;;;;;7.90;79.26;101360.16;5094372;28;20396;-76
2022/03/13 05:57:58;;;;;;;7.20;4.60;;;;;;;7.90;79.72;101355.72;5076341;28;20028;-76
2022/03/13 06:00:25;;;;;;;6.32;5.00;;;;;;;7.84;80.56;101347.38;5094680;28;20039;-76
2022/03/13 06:02:51;;;;;;;7.78;4.97;;;;;;;7.78;81.31;101348.63;5094499;28;20028;-76
2022/03/13 06:05:17;;;;;;;6.45;5.22;;;;;;;7.74;81.28;101347.16;5094217;28;20028;-76
2022/03/13 06:07:46;;;;;;;7.50;4.70;;;;;;;7.70;81.54;101343.88;5094936;28;20161;-76
2022/03/13 06:10:12;;;;;;;6.45;4.80;;;;;;;7.71;81.60;101350.84;5060183;28;20360;-75
2022/03/13 06:12:39;;;;;;;6.78;4.70;;;;;;;7.69;82.11;101346.66;5075960;28;20373;-75
2022/03/13 06:15:06;;;;;;;6.22;5.38;;;;;;;7.66;82.32;101346.84;5094332;28;20085;-76
2022/03/13 06:17:32;;;;;;;7.20;5.30;;;;;;;7.64;82.63;101354.88;5094279;28;20034;-76
2022/03/13 06:19:58;;;;;;;8.40;5.03;;;;;;;7.64;82.86;101352.22;5094155;28;20036;-76
2022/03/13 06:22:25;;;;;;;6.38;4.38;;;;;;;7.63;82.45;101355.00;5094671;28;20043;-75
2022/03/13 06:24:53;;;;;;;5.82;4.72;;;;;;;7.64;82.07;101357.53;5094598;28;20036;-75
2022/03/13 06:27:19;;;;;;;10.35;5.80;;;;;;;7.65;82.22;101364.53;5093705;28;20032;-76
2022/03/13 06:29:45;;;;;;;9.35;5.50;;;;;;;7.65;82.34;101367.19;5075620;28;20111;-76
2022/03/13 06:32:10;;;;;;;8.57;5.60;;;;;;;7.64;82.49;101365.47;5093567;28;20052;-76
2022/03/13 06:34:36;;;;;;;10.57;7.53;;;;;;;7.62;83.16;101370.03;5093974;28;20024;-76
2022/03/13 06:37:03;;;;;;;9.95;6.00;;;;;;;7.56;84.55;101367.81;5093301;28;20098;-76
2022/03/13 06:39:29;;;;;;;7.55;6.22;;;;;;;7.48;84.92;101371.00;5093596;28;20032;-76
2022/03/13 06:41:54;;;;;;;7.90;6.05;;;;;;;7.43;85.33;101372.28;5093540;28;20108;-76
2022/03/13 06:44:19;;;;;;;7.75;6.32;;;;;;;7.40;85.60;101368.91;5093524;28;20028;-76
2022/03/13 06:46:45;;;;;;;13.52;6.15;;;;;;;7.36;85.95;101366.53;5058640;28;20028;-75
2022/03/13 06:49:11;;;;;;;8.77;6.07;;;;;;;7.36;85.98;101366.53;5075653;28;20123;-76
2022/03/13 06:51:38;;;;;;;9.48;6.40;;;;;;;7.34;86.58;101369.28;5093326;28;20028;-76
2022/03/13 06:54:05;;;;;;;11.70;7.53;;;;;;;7.33;86.77;101366.75;5093117;28;20043;-76
2022/03/13 06:56:30;;;;;;;9.82;6.90;;;;;;;7.33;87.46;101372.03;5093186;28;20071;-76
2022/03/13 06:59:02;;;;;;;9.32;7.05;;;;;;;7.33;86.88;101367.63;5075579;28;20123;-76
2022/03/13 07:01:28;;;;;;;8.35;6.43;;;;;;;7.32;86.67;101375.66;5093367;28;20551;-76
2022/03/13 07:03:54;;;;;;;10.77;7.10;;;;;;;7.30;86.68;101370.47;5074938;28;20064;-76
2022/03/13 07:06:19;;;;;;;10.15;7.35;;;;;;;7.26;86.65;101366.34;5093010;28;20063;-75
2022/03/13 07:08:44;;;;;;;11.10;7.47;;;;;;;7.22;86.49;101370.97;5092825;28;20119;-75
2022/03/13 07:11:10;;;;;;;10.90;7.38;;;;;;;7.20;86.42;101375.53;5093011;28;20074;-76
2022/03/13 07:13:36;;;;;;;11.23;8.23;;;;;;;7.18;86.10;101376.59;5092799;28;20024;-77
2022/03/13 07:16:03;;;;;;;10.68;7.97;;;;;;;7.16;86.19;101379.34;5093264;28;20032;-77
2022/03/13 07:18:32;;;;;;;11.43;8.02;;;;;;;7.15;86.16;101369.72;5093392;28;20059;-77
2022/03/13 07:20:57;;;;;;;14.35;8.80;;;;;;;7.14;86.08;101372.47;5093524;28;20028;-76
2022/03/13 07:23:23;;;;;;;12.02;8.48;;;;;;;7.15;86.14;101375.03;5093246;28;20036;-78
2022/03/13 07:25:51;;;;;;;11.25;8.57;;;;;;;7.17;86.12;101372.25;5075074;28;20071;-79
2022/03/13 07:28:17;;;;;;;12.52;9.10;;;;;;;7.24;85.89;101373.56;5093128;28;20123;-74
2022/03/13 07:30:44;;;;;;;15.27;9.90;;;;;;;7.29;85.64;101373.22;5093071;28;20073;-77
2022/03/13 07:33:10;;;;;;;17.95;9.65;;;;;;;7.34;85.39;101379.88;5092872;28;20103;-78
2022/03/13 07:35:36;;;;;;;13.80;9.48;;;;;;;7.40;85.22;101379.50;5092898;28;20043;-78
2022/03/13 07:38:01;;;;;;;10.45;8.73;;;;;;;7.48;84.75;101383.38;5093249;28;20040;-77
2022/03/13 07:40:26;;;;;;;14.82;9.93;;;;;;;7.56;84.47;101386.38;5093043;28;20032;-77
2022/03/13 07:42:52;;;;;;;16.65;9.70;;;;;;;7.67;84.13;101386.44;5093275;28;20028;-76
2022/03/13 07:45:18;;;;;;;13.32;9.90;;;;;;;7.86;83.27;101385.19;5092893;28;20116;-76
2022/03/13 07:47:44;;;;;;;13.63;9.73;;;;;;;8.02;83.11;101388.44;5092830;28;20032;-75
2022/03/13 07:50:10;;;;;;;15.00;11.50;;;;;;;8.19;82.79;101386.38;5093215;28;20089;-76
2022/03/13 07:52:35;;;;;;;14.38;10.80;;;;;;;8.31;82.74;101382.84;5092824;28;20031;-77
2022/03/13 07:55:01;;;;;;;14.13;10.27;;;;;;;8.37;82.13;101379.75;5092684;28;20479;-79
2022/03/13 07:57:28;;;;;;;14.07;10.55;;;;;;;8.42;80.88;101384.72;5092968;28;20124;-77
2022/03/13 07:59:54;;;;;;;16.45;11.02;;;;;;;8.50;80.19;101379.75;5093507;28;20036;-77
2022/03/13 08:02:19;;;;;;;14.40;11.00;;;;;;;8.50;79.92;101385.03;5074747;28;20499;-79
2022/03/13 08:04:45;;;;;;;18.63;11.13;;;;;;;8.63;79.54;101374.41;5092593;28;20036;-79
2022/03/13 08:07:10;;;;;;;17.10;10.88;;;;;;;8.74;80.18;101376.25;5074682;28;20460;-74
2022/03/13 08:09:36;;;;;;;15.52;11.10;;;;;;;8.81;79.58;101366.88;5092685;28;20425;-77
2022/03/13 08:12:02;;;;;;;15.55;11.30;;;;;;;8.96;79.55;101364.88;5092676;28;20050;-77
2022/03/13 08:14:28;;;;;;;16.52;10.90;;;;;;;9.10;77.88;101363.81;5074513;28;20134;-76
2022/03/13 08:16:53;;;;;;;18.00;12.55;;;;;;;9.25;77.35;101362.63;5093216;28;20088;-74
2022/03/13 08:19:19;;;;;;;18.92;11.95;;;;;;;9.25;76.04;101362.63;5095394;28;20028;-74
2022/03/13 08:21:44;;;;;;;15.00;11.38;;;;;;;9.35;75.17;101362.78;5078560;28;20036;-78
2022/03/13 08:24:09;;;;;;;16.10;12.48;;;;;;;9.42;75.53;101371.13;5096841;28;20375;-75
2022/03/13 08:26:39;;;;;;;15.93;12.02;;;;;;;9.46;75.11;101367.25;5096768;28;20115;-76
2022/03/13 08:29:06;;;;;;;17.83;12.35;;;;;;;9.60;74.92;101369.69;5096649;28;20028;-76
2022/03/13 08:31:33;;;;;;;16.38;12.25;;;;;;;9.88;73.88;101368.38;5097018;28;20024;-77
2022/03/13 08:33:59;;;;;;;15.20;11.88;;;;;;;10.26;71.70;101354.81;5096251;28;20108;-75
2022/03/13 08:36:25;;;;;;;16.58;11.65;;;;;;;10.59;69.49;101360.03;5096505;28;20040;-78
2022/03/13 08:38:52;;;;;;;17.17;12.00;;;;;;;10.87;67.00;101351.59;5096796;28;20028;-75
2022/03/13 08:41:18;;;;;;;17.10;11.02;;;;;;;11.21;65.42;101349.59;5096208;28;20384;-77
2022/03/13 08:43:43;;;;;;;14.90;11.65;;;;;;;11.75;64.79;101346.78;5096082;28;20036;-77
2022/03/13 08:46:09;;;;;;;18.40;12.30;;;;;;;12.06;63.04;101354.75;5096146;28;20106;-76
2022/03/13 08:48:35;;;;;;;17.27;12.85;;;;;;;12.24;61.57;101349.59;5096092;28;20086;-78
2022/03/13 08:51:02;;;;;;;20.15;12.15;;;;;;;12.56;61.21;101352.03;5096516;28;20036;-74
2022/03/13 08:53:28;;;;;;;15.85;12.07;;;;;;;12.76;59.61;101344.03;5095796;28;20024;-76
2022/03/13 08:55:53;;;;;;;15.75;11.40;;;;;;;12.78;58.84;101356.25;5077853;28;20035;-82
2022/03/13 08:58:18;;;;;;;15.73;11.30;;;;;;;12.79;58.23;101352.56;5077711;28;20387;-79
2022/03/13 09:00:44;;;;;;;19.85;11.80;;;;;;;13.09;58.30;101342.72;5095833;28;20492;-80
2022/03/13 09:03:09;;;;;;;15.23;11.43;;;;;;;13.40;56.04;101348.75;5095804;28;20110;-80
2022/03/13 09:05:35;;;;;;;15.80;11.75;;;;;;;13.71;55.53;101345.81;5096203;28;20401;-80
2022/03/13 09:08:01;;;;;;;16.33;12.27;;;;;;;14.25;52.92;101348.59;5095734;28;20028;-77
2022/03/13 09:10:27;;;;;;;15.40;11.68;;;;;;;15.09;51.92;101346.56;5095583;28;20118;-79
2022/03/13 09:12:52;;;;;;;15.02;11.55;;;;;;;15.98;47.58;101341.03;5095391;28;20451;-78
2022/03/13 09:15:17;;;;;;;14.75;10.95;;;;;;;16.76;45.60;101345.19;5095293;28;20476;-78
2022/03/13 09:17:43;;;;;;;15.48;10.90;;;;;;;16.38;44.86;101353.72;5077130;28;20392;-78
2022/03/13 09:20:09;;;;;;;16.88;11.25;;;;;;;16.50;44.73;101343.50;5077255;28;20373;-78
2022/03/13 09:22:42;;;;;;;14.27;10.85;;;;;;;17.27;44.19;101351.25;5095015;28;20036;-78
2022/03/13 09:25:08;;;;;;;14.73;11.52;;;;;;;17.30;42.56;101349.22;5096033;28;20075;-78
2022/03/13 09:27:34;;;;;;;13.20;10.85;;;;;;;17.68;41.68;101349.47;5095243;28;20066;-79
2022/03/13 09:29:59;;;;;;;14.68;11.18;;;;;;;18.12;41.12;101346.28;5094653;28;20040;-79
2022/03/13 09:32:28;;;;;;;15.07;11.07;;;;;;;17.41;41.78;101354.25;5095183;28;20079;-78
2022/03/13 09:34:54;;;;;;;15.48;11.43;;;;;;;17.68;41.79;101354.84;5094974;28;20475;-77
2022/03/13 09:37:20;;;;;;;13.88;11.50;;;;;;;17.55;41.75;101350.84;5095419;28;20444;-78
2022/03/13 09:39:46;;;;;;;17.02;10.50;;;;;;;18.07;40.50;101345.97;5095096;28;20031;-78
2022/03/13 09:42:11;;;;;;;16.17;10.57;;;;;;;17.45;40.88;101347.50;5095066;28;20024;-77
2022/03/13 09:44:37;;;;;;;18.52;11.25;;;;;;;17.28;42.32;101352.09;5094895;28;20040;-78
2022/03/13 09:47:03;;;;;;;13.23;10.80;;;;;;;16.88;42.80;101341.22;5095583;28;20423;-78
2022/03/13 09:49:28;;;;;;;16.40;11.10;;;;;;;17.77;41.89;101334.97;5094607;28;20039;-80
2022/03/13 09:51:54;;;;;;;19.45;10.55;;;;;;;17.64;41.37;101335.50;5095546;28;20066;-79
2022/03/13 09:54:19;;;;;;;14.18;11.18;;;;;;;18.07;40.54;101330.66;5095114;28;20407;-77
2022/03/13 09:56:45;;;;;;;13.52;10.30;;;;;;;17.55;41.23;101337.38;5094856;28;20036;-78
2022/03/13 09:59:10;;;;;;;13.80;11.18;;;;;;;17.71;41.08;101328.44;5094467;28;20047;-78
2022/03/13 10:01:36;;;;;;;15.65;11.63;;;;;;;17.58;41.69;101326.28;5094774;28;20035;-78
2022/03/13 10:04:04;;;;;;;14.25;10.80;;;;;;;18.05;40.91;101334.53;5095203;28;20032;-78
2022/03/13 10:06:30;;;;;;;13.55;11.02;;;;;;;17.98;41.46;101335.22;5094924;28;20486;-78
2022/03/13 10:08:55;;;;;;;12.38;9.77;;;;;;;18.53;39.60;101334.44;5094570;28;20067;-78
2022/03/13 10:11:34;;;;;;;13.68;10.20;;;;;;;18.48;38.72;101332.25;5094769;28;20344;-78
2022/03/13 10:14:07;;;;;;;14.30;10.65;;;;;;;18.89;39.16;101331.97;5094386;28;20024;-78
2022/03/13 10:16:39;;;;;;;12.90;9.73;;;;;;;18.88;38.81;101327.56;5094366;28;20107;-78
2022/03/13 10:19:19;;;;;;;15.27;10.70;;;;;;;18.26;40.30;101326.66;5094907;28;20036;-78
2022/03/13 10:22:05;;;;;;;14.85;9.15;;;;;;;19.16;38.09;101327.81;5094753;28;20032;-77
2022/03/13 10:24:57;;;;;;;11.00;8.05;;;;;;;19.42;37.02;101328.41;5093864;28;20458;-77
2022/03/13 10:27:22;;;;;;;10.95;8.55;;;;;;;20.38;36.16;101328.38;5089155;28;20450;-78
2022/03/13 10:29:48;;;;;;;8.93;7.88;;;;;;;19.98;34.88;101317.97;5094184;28;20100;-77
2022/03/13 10:32:14;;;;;;;9.23;8.02;;;;;;;19.73;35.45;101326.38;5094144;28;20522;-78
2022/03/13 10:34:39;;;;;;;15.07;9.18;;;;;;;19.82;36.65;101319.00;5094179;28;20024;-78
2022/03/13 10:37:06;;;;;;;10.75;8.80;;;;;;;19.40;36.77;101315.09;5094436;28;20075;-78
2022/03/13 10:39:34;;;;;;;13.02;9.45;;;;;;;19.32;37.19;101307.94;5093866;28;20071;-77
2022/03/13 10:42:02;;;;;;;11.32;9.13;;;;;;;20.19;36.01;101306.34;5092979;28;20035;-77
2022/03/13 10:44:35;;;;;;;13.20;9.35;;;;;;;19.85;36.27;101307.00;5094519;28;20086;-78
2022/03/13 10:47:05;;;;;;;11.93;9.48;;;;;;;19.55;36.37;101304.31;5094101;28;20093;-79
2022/03/13 10:49:45;;;;;;;9.98;8.07;;;;;;;19.74;36.19;101302.91;5094229;28;20046;-80
2022/03/13 10:52:31;;;;;;;11.48;8.40;;;;;;;19.17;36.69;101291.75;5094023;28;20119;-79
2022/03/13 10:55:15;;;;;;;9.00;8.02;;;;;;;19.77;36.50;101304.38;5075724;28;20028;-80
2022/03/13 10:57:54;;;;;;;8.98;7.57;;;;;;;20.18;34.58;101287.63;5093662;28;20028;-79
2022/03/13 11:00:21;;;;;;;11.48;8.45;;;;;;;20.20;34.94;101291.81;5093817;28;20395;-78
2022/03/13 11:02:48;;;;;;;12.55;8.18;;;;;;;20.21;36.10;101287.25;5093554;28;20089;-77
2022/03/13 11:05:13;;;;;;;11.55;8.38;;;;;;;20.41;35.01;101285.59;5093416;28;20036;-76
2022/03/13 11:07:39;;;;;;;14.35;7.57;;;;;;;20.59;34.48;101276.19;5093575;28;20028;-76
2022/03/13 11:10:07;;;;;;;9.02;7.40;;;;;;;20.57;34.61;101297.16;5093902;28;20047;-77
2022/03/13 11:12:34;;;;;;;9.68;7.05;;;;;;;19.54;34.78;101291.81;5075088;28;20027;-77
2022/03/13 11:15:02;;;;;;;8.90;6.45;;;;;;;19.02;35.54;101283.63;5093378;28;20031;-77
2022/03/13 11:17:31;;;;;;;11.25;7.68;;;;;;;19.04;36.79;101291.53;5093423;28;20096;-78
2022/03/13 11:19:58;;;;;;;9.82;7.70;;;;;;;18.70;37.97;101292.00;5093464;28;20024;-77
2022/03/13 11:22:25;;;;;;;14.82;7.57;;;;;;;18.96;36.92;101289.78;5093298;28;20028;-80
2022/03/13 11:24:53;;;;;;;11.52;7.95;;;;;;;18.77;37.73;101288.41;5093119;28;20115;-77
2022/03/13 11:27:20;;;;;;;8.02;6.82;;;;;;;19.07;36.60;101290.34;5093124;28;20047;-79